CheckWX is a tool to help pilots better visualize weather data.  It is not intended as a substitute for an official pre-flight weather briefing.

21:12:49 UTC

KMQY METAR
Smyrna Airport
Smyrna, Tennessee, USA
Current

17 mins ago

KMQY 232056Z 23009KT 10SM CLR 32/17 A3015 RMK AO2 SLP102 T03170172 58016
Observed
May-23 @ 20:56 UTC
Wind
  • 230° at 9 KTS
Visibility
10 SM
Flight Rules
VFR
Cloud Levels
  • Clear skies
Temperature
32°C / 90°F
Dewpoint
17°C / 63°F
Heat Index
33°C / 91°F
Humidity
41%
Altimeter
30.15" Hg
Pressure
1021.02 hPa
Previous

1 hour ago

KMQY 231956Z 21009KT 10SM CLR 32/18 A3017 RMK AO2 SLP109 T03170178
Observed
May-23 @ 19:56 UTC
Wind
  • 210° at 9 KTS
Visibility
10 SM
Flight Rules
VFR
Cloud Levels
  • Clear skies
Temperature
32°C / 90°F
Dewpoint
18°C / 64°F
Heat Index
33°C / 92°F
Humidity
43%
Altimeter
30.17" Hg
Pressure
1021.72 hPa
Previous

2 hours ago

KMQY 231856Z 23010KT 8SM CLR 32/17 A3019 RMK AO2 SLP112 T03170172
Observed
May-23 @ 18:56 UTC
Wind
  • 230° at 10 KTS
Visibility
8 SM
Flight Rules
VFR
Cloud Levels
  • Clear skies
Temperature
32°C / 90°F
Dewpoint
17°C / 63°F
Heat Index
33°C / 91°F
Humidity
41%
Altimeter
30.19" Hg
Pressure
1022.32 hPa